Time;durP1;ratioP1;P1;durP2;ratioP2;P2;SDS_P1;SDS_P2;PMS_P1;PMS_P2;Temp;Humidity;BMP_temperature;BMP_pressure;BME280_temperature;BME280_humidity;BME280_pressure;Samples;Min_cycle;Max_cycle;Signal;HPM_P1;HPM_P2
2022/11/12 00:00:34;;;;;;;14.43;9.70;;;;;;;6.77;91.33;103086.72;5028162;28;20033;-77
2022/11/12 00:02:59;;;;;;;15.35;9.43;;;;;;;6.71;90.98;103076.59;5028537;28;20026;-74
2022/11/12 00:05:25;;;;;;;14.73;9.77;;;;;;;6.65;91.12;103081.91;5028247;28;20037;-74
2022/11/12 00:07:50;;;;;;;13.55;9.30;;;;;;;6.65;91.49;103076.75;5032948;28;20036;-74
2022/11/12 00:10:16;;;;;;;14.20;9.25;;;;;;;6.64;91.36;103069.91;5022997;28;20029;-74
2022/11/12 00:12:42;;;;;;;15.38;9.70;;;;;;;6.64;91.12;103080.22;5020046;28;20473;-74
2022/11/12 00:15:08;;;;;;;14.48;9.70;;;;;;;6.62;91.19;103082.84;5028183;28;20029;-73
2022/11/12 00:17:33;;;;;;;12.75;8.43;;;;;;;6.53;90.70;103061.63;5028197;28;20052;-76
2022/11/12 00:19:59;;;;;;;13.82;9.50;;;;;;;6.60;91.52;103073.47;5031614;28;20482;-75
2022/11/12 00:22:24;;;;;;;13.73;8.50;;;;;;;6.56;91.48;103082.19;5025733;28;20045;-74
2022/11/12 00:24:50;;;;;;;12.50;8.82;;;;;;;6.49;91.48;103070.38;5023271;28;20511;-74
2022/11/12 00:27:15;;;;;;;13.77;9.50;;;;;;;6.48;91.47;103078.97;5025601;28;20028;-74
2022/11/12 00:29:41;;;;;;;14.82;9.73;;;;;;;6.48;91.24;103089.28;5024831;28;20033;-74
2022/11/12 00:32:07;;;;;;;14.35;9.85;;;;;;;6.43;90.84;103093.75;5024575;28;20124;-74
2022/11/12 00:34:33;;;;;;;14.75;9.93;;;;;;;6.39;91.54;103091.22;5024545;28;20478;-74
2022/11/12 00:37:00;;;;;;;13.75;9.70;;;;;;;6.37;91.68;103087.88;5036926;28;20124;-74
2022/11/12 00:39:25;;;;;;;15.57;9.88;;;;;;;6.33;91.54;103091.41;5031928;28;20033;-75
2022/11/12 00:41:50;;;;;;;13.93;9.50;;;;;;;6.29;91.75;103083.78;5030481;28;20178;-74
2022/11/12 00:44:16;;;;;;;18.23;9.75;;;;;;;6.27;91.51;103091.56;5025111;28;20770;-74
2022/11/12 00:46:41;;;;;;;15.13;9.95;;;;;;;6.23;91.69;103079.66;5024014;28;20037;-74
2022/11/12 00:49:07;;;;;;;14.48;9.75;;;;;;;6.29;91.88;103096.69;5025261;28;20033;-73
2022/11/12 00:51:33;;;;;;;16.08;8.90;;;;;;;6.30;91.44;103096.63;5024325;28;20444;-74
2022/11/12 00:53:58;;;;;;;13.85;9.80;;;;;;;6.27;92.38;103101.88;5022553;28;20042;-75
2022/11/12 00:56:24;;;;;;;16.25;9.45;;;;;;;6.28;91.49;103098.41;5024085;28;20037;-74
2022/11/12 00:58:49;;;;;;;14.77;9.60;;;;;;;6.26;91.69;103100.19;5022586;28;20025;-74
2022/11/12 01:01:15;;;;;;;15.20;9.55;;;;;;;6.20;91.86;103095.22;5024554;28;20033;-76
2022/11/12 01:03:42;;;;;;;13.82;8.93;;;;;;;6.24;92.36;103101.09;5028422;28;20076;-74
2022/11/12 01:06:12;;;;;;;15.85;10.27;;;;;;;6.19;92.17;103093.50;5036058;28;20035;-74
2022/11/12 01:08:38;;;;;;;15.02;10.63;;;;;;;6.18;91.92;103094.38;5039718;28;20536;-73
2022/11/12 01:11:19;;;;;;;17.80;12.07;;;;;;;6.12;92.11;103092.81;5018380;28;20084;-74
2022/11/12 01:13:46;;;;;;;14.32;9.77;;;;;;;6.04;91.67;103083.63;5023442;28;20041;-74
2022/11/12 01:16:16;;;;;;;16.45;10.55;;;;;;;5.95;91.94;103084.69;5024466;28;20036;-74
2022/11/12 01:18:42;;;;;;;15.77;10.40;;;;;;;5.93;91.75;103090.78;5028675;28;20385;-74
2022/11/12 01:21:07;;;;;;;15.45;10.05;;;;;;;5.94;91.87;103087.31;5024558;28;20057;-73
2022/11/12 01:23:34;;;;;;;16.73;10.35;;;;;;;5.91;93.04;103092.50;5034890;28;20028;-74
2022/11/12 01:26:11;;;;;;;16.08;9.85;;;;;;;5.95;92.72;103096.72;5029550;28;20025;-74
2022/11/12 01:28:37;;;;;;;16.50;11.13;;;;;;;5.96;93.00;103094.09;5022829;28;20452;-73
2022/11/12 01:31:22;;;;;;;15.85;9.68;;;;;;;5.97;92.52;103092.41;5027294;28;20056;-74
2022/11/12 01:33:51;;;;;;;17.10;10.55;;;;;;;5.96;92.82;103090.69;5020997;28;20045;-73
2022/11/12 01:36:17;;;;;;;14.93;9.63;;;;;;;5.91;92.74;103074.47;5024706;28;20112;-76
2022/11/12 01:38:44;;;;;;;15.15;10.75;;;;;;;5.94;92.87;103083.00;5023470;28;20116;-76
2022/11/12 01:41:19;;;;;;;17.00;9.82;;;;;;;5.95;92.84;103073.53;5021995;28;20091;-74
2022/11/12 01:43:45;;;;;;;17.95;11.13;;;;;;;5.88;92.80;103056.53;5027756;28;20037;-75
2022/11/12 01:46:27;;;;;;;16.30;10.57;;;;;;;5.91;93.26;103061.59;5023175;28;20039;-74
2022/11/12 01:48:57;;;;;;;18.27;11.77;;;;;;;5.86;92.86;103062.56;5024374;28;20033;-73
2022/11/12 01:51:28;;;;;;;16.67;11.10;;;;;;;5.88;92.86;103066.84;5033968;28;20032;-74
2022/11/12 01:53:58;;;;;;;16.50;10.35;;;;;;;5.81;92.74;103056.69;5025838;28;20186;-74
2022/11/12 01:56:27;;;;;;;17.05;10.98;;;;;;;5.85;93.33;103071.19;5030282;28;20473;-73
2022/11/12 01:58:59;;;;;;;16.70;10.80;;;;;;;5.86;92.56;103075.44;5030804;28;20116;-74
2022/11/12 02:01:24;;;;;;;15.70;11.27;;;;;;;5.85;92.98;103068.63;5031077;28;20036;-74
2022/11/12 02:03:50;;;;;;;14.18;10.00;;;;;;;5.80;92.77;103054.16;5027920;28;20037;-74
2022/11/12 02:06:17;;;;;;;17.63;10.98;;;;;;;5.85;92.70;103063.47;5036131;28;20421;-74
2022/11/12 02:08:43;;;;;;;17.38;12.52;;;;;;;5.80;93.42;103055.00;5027006;28;20121;-74
2022/11/12 02:11:19;;;;;;;18.90;11.75;;;;;;;5.77;92.72;103055.06;5025353;28;20116;-74
2022/11/12 02:13:58;;;;;;;16.20;11.10;;;;;;;5.72;93.08;103056.91;5033213;28;20416;-74
2022/11/12 02:16:32;;;;;;;15.88;10.43;;;;;;;5.69;92.89;103053.59;5020480;28;20032;-74
2022/11/12 02:18:58;;;;;;;14.90;9.88;;;;;;;5.61;93.10;103051.19;5027025;28;20537;-74
2022/11/12 02:21:25;;;;;;;16.70;10.52;;;;;;;5.57;93.00;103041.88;5024909;28;20056;-74
2022/11/12 02:24:01;;;;;;;14.98;10.05;;;;;;;5.66;93.45;103056.22;5043555;28;20025;-73
2022/11/12 02:26:31;;;;;;;17.10;9.85;;;;;;;5.65;93.61;103054.56;5033683;28;20027;-74
2022/11/12 02:28:57;;;;;;;15.35;9.68;;;;;;;5.65;93.07;103059.69;5028332;28;20040;-73
2022/11/12 02:31:23;;;;;;;17.30;9.45;;;;;;;5.56;92.86;103043.63;5014913;28;20025;-74
2022/11/12 02:33:48;;;;;;;15.52;9.43;;;;;;;5.63;93.21;103056.31;5025155;28;20017;-74
2022/11/12 02:36:13;;;;;;;16.20;10.93;;;;;;;5.59;93.17;103060.69;5025235;28;20748;-74
2022/11/12 02:38:39;;;;;;;14.07;10.25;;;;;;;5.46;92.82;103049.03;5025855;28;20782;-76
2022/11/12 02:41:04;;;;;;;16.30;9.13;;;;;;;5.58;93.37;103051.28;5030700;28;20052;-74
2022/11/12 02:43:29;;;;;;;15.10;8.77;;;;;;;5.55;92.98;103054.75;5027575;28;20092;-75
2022/11/12 02:45:55;;;;;;;13.93;9.40;;;;;;;5.58;92.95;103059.00;5026436;28;20488;-74
2022/11/12 02:48:20;;;;;;;15.20;9.85;;;;;;;5.55;93.53;103064.22;5029898;28;20376;-74
2022/11/12 02:50:46;;;;;;;13.45;8.98;;;;;;;5.49;92.81;103048.94;5024982;28;20040;-76
2022/11/12 02:53:12;;;;;;;13.43;8.73;;;;;;;5.48;93.04;103052.38;5025097;28;20035;-74
2022/11/12 02:55:37;;;;;;;14.95;9.95;;;;;;;5.48;93.16;103060.13;5029705;28;20041;-74
2022/11/12 02:58:03;;;;;;;14.38;9.65;;;;;;;5.51;92.76;103062.63;5032445;28;20020;-74
2022/11/12 03:00:28;;;;;;;13.38;8.95;;;;;;;5.46;93.09;103059.31;5026998;28;20029;-74
2022/11/12 03:03:00;;;;;;;14.02;8.95;;;;;;;5.49;93.29;103064.38;5029968;28;20032;-74
2022/11/12 03:05:30;;;;;;;15.95;9.45;;;;;;;5.47;93.54;103056.69;5012664;28;20025;-74
2022/11/12 03:08:07;;;;;;;15.10;9.82;;;;;;;5.47;93.32;103055.84;5026362;28;20462;-75
2022/11/12 03:10:35;;;;;;;16.05;10.27;;;;;;;5.45;92.84;103044.72;5025369;28;20065;-74
2022/11/12 03:13:01;;;;;;;14.23;9.85;;;;;;;5.43;93.04;103038.78;5025916;28;20033;-74
2022/11/12 03:15:28;;;;;;;14.32;9.63;;;;;;;5.44;93.26;103046.47;5027511;28;20474;-74
2022/11/12 03:17:53;;;;;;;14.43;9.45;;;;;;;5.35;92.91;103035.56;5026074;28;20474;-74
2022/11/12 03:20:19;;;;;;;14.43;9.90;;;;;;;5.41;92.75;103032.84;5032981;28;20506;-75
2022/11/12 03:23:14;;;;;;;16.10;9.88;;;;;;;5.37;93.05;103029.50;5017479;28;20061;-74
2022/11/12 03:25:39;;;;;;;13.73;9.32;;;;;;;5.31;93.12;103015.03;4997485;28;20478;-75
2022/11/12 03:28:10;;;;;;;12.38;8.73;;;;;;;5.37;93.18;103033.78;5026650;28;20029;-74
2022/11/12 03:30:37;;;;;;;14.93;9.07;;;;;;;5.33;92.72;103033.88;5030843;28;20052;-74
2022/11/12 03:33:04;;;;;;;17.25;9.50;;;;;;;5.32;93.34;103037.31;5041728;28;20118;-74
2022/11/12 03:35:29;;;;;;;14.18;9.15;;;;;;;5.31;92.99;103045.06;5035819;28;20166;-74
2022/11/12 03:37:55;;;;;;;14.70;8.82;;;;;;;5.24;92.86;103023.81;5031028;28;20454;-74
2022/11/12 03:40:21;;;;;;;13.57;8.82;;;;;;;5.25;93.21;103029.78;5024147;28;20037;-76
2022/11/12 03:42:49;;;;;;;12.88;8.52;;;;;;;5.26;92.81;103037.47;5024963;28;20029;-74
2022/11/12 03:45:15;;;;;;;12.15;8.05;;;;;;;5.26;92.61;103029.75;5025629;28;20029;-74
2022/11/12 03:47:45;;;;;;;14.00;8.55;;;;;;;5.21;93.13;103026.44;5043139;28;20017;-74
2022/11/12 03:50:12;;;;;;;14.07;8.77;;;;;;;5.24;93.50;103033.25;5043767;28;20457;-74
2022/11/12 03:52:42;;;;;;;12.25;8.05;;;;;;;5.22;93.10;103025.56;5024697;28;20470;-74
2022/11/12 03:55:08;;;;;;;13.30;9.40;;;;;;;5.22;92.99;103035.03;5016218;28;20021;-74
2022/11/12 03:57:33;;;;;;;13.57;8.93;;;;;;;5.22;93.16;103038.44;5037721;28;20470;-74
2022/11/12 03:59:58;;;;;;;12.80;9.32;;;;;;;5.22;93.20;103038.44;5028585;28;20611;-74
2022/11/12 04:02:25;;;;;;;14.98;9.27;;;;;;;5.20;93.62;103036.75;5024179;28;20116;-73
2022/11/12 04:10:20;;;;;;;13.75;8.63;;;;;;;5.19;93.80;103043.63;5019297;28;20071;-73
2022/11/12 04:15:29;;;;;;;15.88;8.43;;;;;;;5.16;93.59;103046.31;5023955;28;20551;-75
2022/11/12 04:23:30;;;;;;;14.65;9.27;;;;;;;5.17;93.73;103042.84;5001567;28;20478;-74
2022/11/12 04:30:14;;;;;;;14.60;9.30;;;;;;;5.12;93.64;103049.81;5020235;28;20430;-74
2022/11/12 04:31:25;;;;;;;11.75;8.73;;;;;;;5.16;93.19;103060.88;5017752;28;20045;-74
2022/11/12 04:33:50;;;;;;;15.05;9.50;;;;;;;5.15;93.84;103054.88;5023551;28;20363;-74
2022/11/12 04:36:15;;;;;;;13.98;9.15;;;;;;;5.08;93.22;103037.91;5024858;28;20040;-74
2022/11/12 04:38:42;;;;;;;14.93;8.52;;;;;;;5.13;93.44;103037.78;5019631;28;20112;-74
2022/11/12 04:46:36;;;;;;;13.32;8.60;;;;;;;5.05;93.13;103032.84;5025406;28;20045;-75
2022/11/12 04:49:01;;;;;;;13.57;9.07;;;;;;;5.02;92.93;103027.75;5024814;28;20033;-74
2022/11/12 04:54:10;;;;;;;11.70;7.90;;;;;;;4.98;92.50;103026.13;5023960;28;20083;-74
2022/11/12 04:56:39;;;;;;;12.88;7.63;;;;;;;4.91;92.99;103019.44;5017562;28;20614;-74
2022/11/12 04:59:04;;;;;;;12.57;7.65;;;;;;;4.87;92.89;103017.81;5024882;28;20564;-74
2022/11/12 05:01:29;;;;;;;15.10;8.88;;;;;;;4.77;92.86;103018.03;5022756;28;20029;-74
2022/11/12 05:03:55;;;;;;;13.40;8.18;;;;;;;4.76;92.55;103034.34;5024519;28;20088;-74
2022/11/12 05:09:04;;;;;;;11.98;6.70;;;;;;;4.66;92.70;103024.28;5024110;28;20087;-74
2022/11/12 05:11:30;;;;;;;11.55;7.47;;;;;;;4.63;93.14;103024.34;5023865;28;20409;-74
2022/11/12 05:13:55;;;;;;;11.38;8.10;;;;;;;4.63;93.02;103025.19;5027406;28;20481;-74
2022/11/12 05:16:20;;;;;;;12.95;7.45;;;;;;;4.64;93.36;103018.31;5026788;28;20036;-74
2022/11/12 05:18:46;;;;;;;11.57;7.80;;;;;;;4.60;93.48;103012.41;5030829;28;20025;-75
2022/11/12 05:23:55;;;;;;;13.40;7.97;;;;;;;4.64;93.70;103003.72;5022602;28;20052;-74
2022/11/12 05:26:20;;;;;;;13.23;7.43;;;;;;;4.64;93.35;103003.72;5026069;28;20029;-74
2022/11/12 05:28:46;;;;;;;13.50;7.93;;;;;;;4.61;93.15;103001.25;5025822;28;20029;-74
2022/11/12 05:31:11;;;;;;;11.30;6.82;;;;;;;4.54;93.20;102991.97;5027417;28;20109;-74
2022/11/12 05:33:36;;;;;;;13.25;7.03;;;;;;;4.57;93.16;102999.63;5028199;28;20087;-74
2022/11/12 05:36:02;;;;;;;14.55;7.70;;;;;;;4.52;93.82;102986.00;5028684;28;20033;-74
2022/11/12 05:38:27;;;;;;;12.82;7.10;;;;;;;4.58;93.65;103001.28;5026281;28;20052;-74
2022/11/12 05:40:52;;;;;;;12.05;7.43;;;;;;;4.56;93.75;102997.09;5030039;28;20485;-74
2022/11/12 05:43:18;;;;;;;12.98;7.75;;;;;;;4.59;93.96;103007.28;5032065;28;20117;-74
2022/11/12 05:45:44;;;;;;;15.13;7.57;;;;;;;4.60;93.57;103004.69;5037532;28;20045;-74
2022/11/12 05:48:09;;;;;;;12.02;7.28;;;;;;;4.57;93.38;102994.47;5030942;28;20037;-74
2022/11/12 05:50:35;;;;;;;13.15;7.43;;;;;;;4.55;93.90;102990.25;5040070;28;20029;-74
2022/11/12 05:53:00;;;;;;;13.13;7.57;;;;;;;4.62;93.63;103008.06;5035484;28;20385;-74
2022/11/12 05:55:25;;;;;;;10.98;7.20;;;;;;;4.59;93.73;102991.84;5031097;28;20033;-74
2022/11/12 05:57:51;;;;;;;10.70;6.85;;;;;;;4.59;93.74;103003.00;5039355;28;20032;-74
2022/11/12 06:00:16;;;;;;;12.68;7.97;;;;;;;4.61;93.26;102997.84;5034358;28;20112;-75
2022/11/12 06:02:42;;;;;;;15.23;8.43;;;;;;;4.60;93.31;103002.13;5028690;28;20128;-74
2022/11/12 06:05:08;;;;;;;12.55;7.45;;;;;;;4.61;93.99;103011.53;5039849;28;20491;-74
2022/11/12 06:07:33;;;;;;;15.63;8.45;;;;;;;4.53;93.63;102998.00;5036628;28;20470;-74
2022/11/12 06:09:59;;;;;;;13.45;8.05;;;;;;;4.51;93.10;103010.88;5032989;28;20080;-74
2022/11/12 06:12:24;;;;;;;14.55;8.13;;;;;;;4.47;93.36;103010.97;5037312;28;20485;-75
2022/11/12 06:14:49;;;;;;;13.95;8.82;;;;;;;4.42;93.68;103007.66;5028736;28;20037;-74
2022/11/12 06:17:15;;;;;;;14.43;8.73;;;;;;;4.46;93.49;103009.28;5031234;28;20426;-74
2022/11/12 06:19:40;;;;;;;11.77;7.70;;;;;;;4.44;93.53;103008.47;5027245;28;20029;-74
2022/11/12 06:22:05;;;;;;;12.90;7.82;;;;;;;4.42;93.56;103013.66;5027374;28;20381;-74
2022/11/12 06:24:31;;;;;;;10.35;7.43;;;;;;;4.30;92.91;103000.19;5034817;28;20415;-74
2022/11/12 06:26:56;;;;;;;11.85;6.97;;;;;;;4.31;92.78;103017.31;5029583;28;20037;-76
2022/11/12 06:29:22;;;;;;;12.00;7.55;;;;;;;4.25;93.24;103019.13;5019355;28;20022;-74
2022/11/12 06:31:47;;;;;;;12.80;7.55;;;;;;;4.28;93.64;103022.50;5023043;28;20470;-74
2022/11/12 06:34:12;;;;;;;11.65;8.00;;;;;;;4.24;93.25;103022.56;5030229;28;20056;-74
2022/11/12 06:36:38;;;;;;;11.60;7.72;;;;;;;4.31;93.60;103027.59;5026781;28;20060;-75
2022/11/12 06:39:03;;;;;;;13.25;8.43;;;;;;;4.31;93.53;103022.44;5014369;28;20030;-74
2022/11/12 06:41:28;;;;;;;12.43;7.78;;;;;;;4.24;93.60;103009.72;5044896;28;20751;-76
2022/11/12 06:43:54;;;;;;;13.60;7.35;;;;;;;4.32;93.31;103019.00;5032291;28;20065;-74
2022/11/12 06:46:19;;;;;;;11.93;6.82;;;;;;;4.24;93.26;103012.31;5038598;28;20079;-74
2022/11/12 06:48:45;;;;;;;12.55;7.13;;;;;;;4.20;93.89;103015.81;5039921;28;20049;-74
2022/11/12 06:51:18;;;;;;;13.80;7.72;;;;;;;4.24;93.63;103017.44;5032267;28;20021;-74
2022/11/12 06:53:44;;;;;;;10.70;7.03;;;;;;;4.24;93.88;103022.56;5025858;28;20029;-74
2022/11/12 06:56:10;;;;;;;12.10;7.65;;;;;;;4.25;93.56;103028.56;5032262;28;20025;-74
2022/11/12 06:58:35;;;;;;;16.63;7.93;;;;;;;4.22;93.79;103024.31;5037778;28;20367;-74
2022/11/12 07:01:06;;;;;;;12.35;7.70;;;;;;;4.22;94.14;103018.34;5029840;28;20170;-74
2022/11/12 07:03:32;;;;;;;12.63;8.02;;;;;;;4.23;94.04;103026.00;5025414;28;20075;-73
2022/11/12 07:05:57;;;;;;;11.55;7.68;;;;;;;4.24;93.57;103032.84;5034469;28;20029;-74
2022/11/12 07:08:23;;;;;;;15.45;8.00;;;;;;;4.24;94.23;103027.72;5025825;28;20377;-74
2022/11/12 07:10:48;;;;;;;11.00;7.00;;;;;;;4.26;93.87;103036.22;5032550;28;20071;-74
2022/11/12 07:13:14;;;;;;;14.23;8.43;;;;;;;4.25;94.12;103039.69;5030782;28;20363;-74
2022/11/12 07:15:40;;;;;;;13.82;7.70;;;;;;;4.24;94.07;103038.00;5032063;28;20024;-74
2022/11/12 07:18:05;;;;;;;15.00;8.73;;;;;;;4.26;94.09;103038.78;5029737;28;20025;-74
2022/11/12 07:20:31;;;;;;;13.02;8.20;;;;;;;4.25;94.47;103044.81;5035069;28;20139;-74
2022/11/12 07:23:00;;;;;;;13.57;8.07;;;;;;;4.25;94.15;103044.81;5029429;28;20101;-74
2022/11/12 07:25:25;;;;;;;12.52;8.20;;;;;;;4.24;94.61;103043.13;5033009;28;20480;-74
2022/11/12 07:27:52;;;;;;;13.38;7.72;;;;;;;4.25;93.77;103046.53;5025616;28;20064;-74
2022/11/12 07:30:17;;;;;;;14.30;9.13;;;;;;;4.22;94.06;103044.84;5027715;28;20025;-75
2022/11/12 07:32:43;;;;;;;12.07;8.40;;;;;;;4.17;93.98;103046.66;5029383;28;20041;-74
2022/11/12 07:35:08;;;;;;;12.30;7.88;;;;;;;4.16;94.07;103039.84;5030826;28;20063;-74
2022/11/12 07:37:34;;;;;;;15.70;8.40;;;;;;;4.16;94.34;103039.84;5029098;28;20071;-74
2022/11/12 07:39:59;;;;;;;14.38;8.15;;;;;;;4.15;94.24;103045.00;5033781;28;20113;-74
2022/11/12 07:42:25;;;;;;;14.63;8.20;;;;;;;4.11;94.38;103046.78;5030299;28;20116;-74
2022/11/12 07:44:50;;;;;;;13.48;7.70;;;;;;;4.07;94.68;103040.03;5036727;28;20078;-76
2022/11/12 07:47:15;;;;;;;12.10;8.60;;;;;;;4.06;94.69;103038.31;5025140;28;20104;-74
2022/11/12 07:49:41;;;;;;;15.63;8.38;;;;;;;4.11;95.03;103051.06;5025079;28;20061;-74
2022/11/12 07:52:06;;;;;;;12.85;8.95;;;;;;;4.16;94.60;103050.13;5028895;28;20447;-74
2022/11/12 07:54:31;;;;;;;14.25;8.65;;;;;;;4.19;94.68;103046.66;5027989;28;20476;-74
2022/11/12 07:56:57;;;;;;;15.10;8.57;;;;;;;4.21;94.73;103043.16;5031376;28;20030;-75
2022/11/12 07:59:22;;;;;;;15.95;8.82;;;;;;;4.28;94.87;103053.31;5025856;28;20028;-75
2022/11/12 08:01:47;;;;;;;13.38;9.40;;;;;;;4.26;95.06;103045.66;5023610;28;20447;-74
2022/11/12 08:04:13;;;;;;;17.85;10.02;;;;;;;4.32;94.74;103060.09;5033028;28;20064;-75
2022/11/12 08:06:38;;;;;;;15.35;8.45;;;;;;;4.33;94.76;103056.66;5038206;28;20558;-74
2022/11/12 08:09:06;;;;;;;14.05;10.15;;;;;;;4.38;94.88;103070.25;5033764;28;20034;-76
2022/11/12 08:11:32;;;;;;;16.10;8.75;;;;;;;4.37;94.97;103073.72;5033912;28;20032;-74
2022/11/12 08:13:58;;;;;;;13.40;8.35;;;;;;;4.38;94.57;103060.81;5030012;28;20030;-75
2022/11/12 08:16:23;;;;;;;13.30;8.75;;;;;;;4.37;95.06;103060.88;5030592;28;20028;-74
2022/11/12 08:18:49;;;;;;;14.50;8.80;;;;;;;4.41;94.44;103078.72;5024653;28;20018;-74
2022/11/12 08:21:16;;;;;;;13.07;8.13;;;;;;;4.42;94.25;103074.47;5030177;28;21118;-74
2022/11/12 08:23:41;;;;;;;14.60;9.10;;;;;;;4.44;94.62;103081.25;5024685;28;20083;-74
2022/11/12 08:26:10;;;;;;;13.68;8.30;;;;;;;4.50;94.57;103085.44;5028934;28;20029;-74
2022/11/12 08:28:36;;;;;;;14.13;8.75;;;;;;;4.47;94.36;103075.19;5025190;28;20038;-75
2022/11/12 08:31:11;;;;;;;15.32;8.63;;;;;;;4.54;94.21;103081.94;5028225;28;20036;-74
2022/11/12 08:33:36;;;;;;;13.20;8.25;;;;;;;4.56;94.49;103079.31;5024590;28;20025;-74
2022/11/12 08:36:07;;;;;;;15.10;8.00;;;;;;;4.61;94.80;103086.06;5026499;28;20029;-76
2022/11/12 08:38:33;;;;;;;17.33;9.65;;;;;;;4.63;94.86;103084.28;5027893;28;20029;-74
2022/11/12 08:41:03;;;;;;;17.48;8.98;;;;;;;4.59;95.08;103062.13;5023870;28;20035;-74
2022/11/12 08:43:29;;;;;;;15.40;9.45;;;;;;;4.69;95.19;103070.47;5034308;28;20357;-74
2022/11/12 08:45:58;;;;;;;13.43;9.35;;;;;;;4.73;95.21;103078.09;5031842;28;20359;-76
2022/11/12 08:48:23;;;;;;;12.02;7.72;;;;;;;4.76;94.96;103083.19;5023060;28;20381;-74
2022/11/12 08:50:49;;;;;;;14.00;8.20;;;;;;;4.83;95.19;103083.06;5034319;28;20032;-74
2022/11/12 08:53:14;;;;;;;13.52;8.63;;;;;;;4.86;95.48;103085.53;5030548;28;20065;-75
2022/11/12 08:55:40;;;;;;;15.07;10.25;;;;;;;4.90;95.70;103084.59;5027036;28;20094;-74
2022/11/12 08:58:05;;;;;;;15.43;9.25;;;;;;;4.99;95.32;103084.41;5027470;28;20072;-74
2022/11/12 09:00:42;;;;;;;15.27;9.27;;;;;;;5.04;95.46;103085.97;5023713;28;20029;-74
2022/11/12 09:03:13;;;;;;;14.63;9.63;;;;;;;5.10;95.79;103082.44;5007948;28;20021;-75
2022/11/12 09:05:39;;;;;;;16.40;8.90;;;;;;;5.10;95.51;103074.72;5030166;28;20508;-76
2022/11/12 09:08:07;;;;;;;15.45;10.00;;;;;;;5.24;95.54;103084.69;5031650;28;20041;-75
2022/11/12 09:10:32;;;;;;;17.15;11.32;;;;;;;5.28;96.02;103082.03;5029790;28;20100;-74
2022/11/12 09:12:58;;;;;;;19.48;12.35;;;;;;;5.36;95.48;103078.44;5026087;28;21182;-75
2022/11/12 09:15:24;;;;;;;20.60;12.23;;;;;;;5.45;96.38;103073.03;5031142;28;20023;-75
2022/11/12 09:18:01;;;;;;;15.45;11.00;;;;;;;5.51;96.13;103078.91;5027507;28;20057;-75
2022/11/12 09:20:27;;;;;;;16.83;11.00;;;;;;;5.61;96.17;103079.50;5026825;28;20519;-74
2022/11/12 09:22:58;;;;;;;17.10;12.40;;;;;;;5.69;96.09;103082.75;5027719;28;20429;-74
2022/11/12 09:25:23;;;;;;;19.80;11.77;;;;;;;5.78;96.43;103082.50;5024249;28;20021;-74
2022/11/12 09:27:48;;;;;;;19.52;12.25;;;;;;;5.85;96.02;103088.38;5024345;28;20030;-74
2022/11/12 09:30:14;;;;;;;14.48;10.55;;;;;;;6.00;96.55;103084.56;5013348;28;20477;-74
2022/11/12 09:32:40;;;;;;;16.20;9.82;;;;;;;6.09;96.38;103098.06;5028667;28;20474;-74
2022/11/12 09:35:06;;;;;;;16.85;11.15;;;;;;;6.16;96.87;103082.44;5030489;28;20033;-74
2022/11/12 09:37:31;;;;;;;22.58;10.55;;;;;;;6.25;95.96;103085.63;5032049;28;20033;-74
2022/11/12 09:39:56;;;;;;;17.10;10.40;;;;;;;6.35;96.06;103087.03;5028900;28;20032;-75
2022/11/12 09:42:22;;;;;;;16.45;11.00;;;;;;;6.47;96.00;103082.44;5023362;28;20021;-76
2022/11/12 09:45:21;;;;;;;14.73;10.88;;;;;;;6.59;96.20;103084.66;5029855;28;20047;-75
2022/11/12 09:47:57;;;;;;;12.73;9.77;;;;;;;6.67;96.00;103082.72;5026919;28;20045;-75
2022/11/12 09:50:47;;;;;;;13.88;10.07;;;;;;;6.79;95.60;103095.25;5031573;28;20025;-74
2022/11/12 09:53:27;;;;;;;19.15;10.95;;;;;;;6.87;95.86;103088.13;5026762;28;20029;-75
2022/11/12 09:55:53;;;;;;;16.88;10.32;;;;;;;6.97;95.84;103072.38;5027569;28;20021;-75
2022/11/12 09:58:18;;;;;;;15.23;11.00;;;;;;;7.11;95.60;103075.38;5028276;28;20531;-75
2022/11/12 10:01:15;;;;;;;15.40;10.48;;;;;;;7.22;95.88;103083.63;5026187;28;20291;-75
2022/11/12 10:04:07;;;;;;;15.27;10.93;;;;;;;7.30;94.76;103081.66;4964679;28;20479;-74
2022/11/12 10:06:54;;;;;;;16.80;10.23;;;;;;;7.37;95.21;103072.81;4944405;28;20159;-75
2022/11/12 10:09:27;;;;;;;18.92;11.88;;;;;;;7.49;95.30;103081.06;4965108;28;20089;-75
2022/11/12 10:14:57;;;;;;;15.05;9.93;;;;;;;7.68;94.54;103076.97;4967364;28;20072;-75
2022/11/12 10:17:40;;;;;;;15.02;10.75;;;;;;;7.76;94.07;103072.41;4967141;28;20124;-75
2022/11/12 10:20:21;;;;;;;21.00;10.18;;;;;;;7.85;94.53;103069.50;4965566;28;20042;-75
2022/11/12 10:23:14;;;;;;;13.93;10.20;;;;;;;7.95;94.55;103065.72;4965419;28;20061;-75
2022/11/12 10:25:44;;;;;;;14.30;9.77;;;;;;;8.06;93.75;103069.66;4970114;28;20035;-75
2022/11/12 10:28:18;;;;;;;12.68;9.73;;;;;;;8.13;94.20;103048.72;4970686;28;20079;-74
2022/11/12 10:30:44;;;;;;;15.60;10.68;;;;;;;8.27;93.67;103066.31;4967789;28;20076;-74
2022/11/12 10:33:15;;;;;;;12.77;9.70;;;;;;;8.40;93.30;103061.59;4965286;28;20081;-74
2022/11/12 10:35:41;;;;;;;14.10;9.75;;;;;;;8.44;92.98;103053.66;4973386;28;20431;-74
2022/11/12 10:38:14;;;;;;;14.60;10.00;;;;;;;8.60;92.92;103058.25;4961414;28;20031;-76
2022/11/12 10:40:41;;;;;;;14.48;10.07;;;;;;;8.61;92.70;103034.94;5004824;28;20482;-76
2022/11/12 10:43:16;;;;;;;16.75;10.95;;;;;;;8.80;92.61;103060.09;5027406;28;20026;-74
2022/11/12 10:45:45;;;;;;;13.63;10.15;;;;;;;8.91;92.10;103058.78;5035176;28;20025;-74
2022/11/12 10:48:27;;;;;;;18.85;11.13;;;;;;;9.02;91.53;103056.63;5030274;28;20062;-75
2022/11/12 10:50:53;;;;;;;14.23;10.23;;;;;;;9.13;91.31;103056.19;5027864;28;20535;-75
2022/11/12 10:53:35;;;;;;;15.25;10.40;;;;;;;9.24;91.28;103045.41;5027719;28;20029;-74
2022/11/12 10:56:03;;;;;;;14.82;10.23;;;;;;;9.32;90.21;103044.19;5028260;28;20025;-75
2022/11/12 10:58:29;;;;;;;15.13;10.57;;;;;;;9.41;91.15;103037.78;5034174;28;20017;-75
2022/11/12 11:00:56;;;;;;;15.30;10.70;;;;;;;9.52;90.64;103035.59;5037029;28;20059;-74
2022/11/12 11:03:25;;;;;;;17.10;10.48;;;;;;;9.61;89.85;103033.50;5039364;28;20044;-76
2022/11/12 11:05:55;;;;;;;19.40;11.73;;;;;;;9.72;89.71;103026.13;5036279;28;20075;-75
2022/11/12 11:08:49;;;;;;;15.57;10.85;;;;;;;9.84;89.71;103028.19;5032648;28;20033;-75
2022/11/12 11:11:25;;;;;;;15.95;11.20;;;;;;;9.95;88.71;103018.19;5023766;28;20056;-74
2022/11/12 11:13:55;;;;;;;14.75;10.63;;;;;;;10.04;87.42;103019.56;5025948;28;20017;-74
2022/11/12 11:16:25;;;;;;;14.20;10.80;;;;;;;10.12;87.08;103020.06;5042091;28;20057;-75
2022/11/12 11:19:04;;;;;;;14.73;10.13;;;;;;;10.17;86.92;103017.25;5035665;28;20022;-75
2022/11/12 11:21:48;;;;;;;12.98;9.70;;;;;;;10.27;88.37;103018.56;5024875;28;20049;-75
2022/11/12 11:24:14;;;;;;;14.52;9.73;;;;;;;10.37;87.30;103022.41;5017328;28;20029;-76
2022/11/12 11:27:20;;;;;;;13.77;10.93;;;;;;;10.42;88.04;103007.47;5027809;28;20025;-76
2022/11/12 11:30:12;;;;;;;13.52;10.82;;;;;;;10.44;87.97;103010.84;5018455;28;20045;-75
2022/11/12 11:32:37;;;;;;;13.48;11.35;;;;;;;10.47;87.75;103015.88;5024128;28;20034;-75
2022/11/12 11:35:16;;;;;;;11.43;9.38;;;;;;;10.49;86.71;102997.66;5025702;28;20029;-75
2022/11/12 11:37:47;;;;;;;14.38;10.45;;;;;;;10.57;86.71;103006.78;5024084;28;20049;-75
2022/11/12 11:40:30;;;;;;;12.90;10.32;;;;;;;10.64;87.67;103013.34;5025794;28;20457;-75
2022/11/12 11:43:34;;;;;;;12.88;10.73;;;;;;;10.74;87.83;103013.75;5027153;28;20025;-76
2022/11/12 11:46:05;;;;;;;13.10;10.55;;;;;;;10.80;87.74;103010.88;5029083;28;20029;-75
2022/11/12 11:48:49;;;;;;;13.73;10.70;;;;;;;10.86;87.02;103002.78;5037803;28;20025;-75
2022/11/12 11:51:32;;;;;;;13.45;10.48;;;;;;;10.91;86.91;102999.97;5015920;28;20036;-75
2022/11/12 11:54:00;;;;;;;13.70;9.93;;;;;;;10.95;85.96;103013.63;5034300;28;20105;-75
2022/11/12 11:56:32;;;;;;;13.00;9.52;;;;;;;10.97;85.61;102999.69;5025560;28;20520;-75
2022/11/12 11:59:06;;;;;;;15.43;9.88;;;;;;;11.00;85.71;102999.53;5038881;28;20171;-75
2022/11/12 12:01:47;;;;;;;12.52;9.82;;;;;;;11.05;85.15;103007.94;5025263;28;20032;-75